sensor_id;sensor_type;location;lat;lon;timestamp;pressure;altitude;pressure_sealevel;temperature;humidity
6349;BME280;3207;42.648;23.406;2022-12-07T00:01:42;99941.97;;;6.86;nan
6349;BME280;3207;42.648;23.406;2022-12-07T00:04:11;99943.81;;;6.84;nan
6349;BME280;3207;42.648;23.406;2022-12-07T00:06:43;99939.81;;;6.78;nan
6349;BME280;3207;42.648;23.406;2022-12-07T00:09:12;99938.41;;;6.73;nan
6349;BME280;3207;42.648;23.406;2022-12-07T00:11:39;99938.56;;;6.70;nan
6349;BME280;3207;42.648;23.406;2022-12-07T00:14:08;99945.81;;;6.65;nan
6349;BME280;3207;42.648;23.406;2022-12-07T00:16:37;99945.22;;;6.59;nan
6349;BME280;3207;42.648;23.406;2022-12-07T00:19:05;99940.41;;;6.53;nan
6349;BME280;3207;42.648;23.406;2022-12-07T00:21:33;99947.78;;;6.45;nan
6349;BME280;3207;42.648;23.406;2022-12-07T00:24:01;99948.22;;;6.38;nan
6349;BME280;3207;42.648;23.406;2022-12-07T00:26:30;99950.47;;;6.28;nan
6349;BME280;3207;42.648;23.406;2022-12-07T00:28:58;99945.66;;;6.22;nan
6349;BME280;3207;42.648;23.406;2022-12-07T00:31:28;99951.00;;;6.19;nan
6349;BME280;3207;42.648;23.406;2022-12-07T00:33:55;99944.13;;;6.18;nan
6349;BME280;3207;42.648;23.406;2022-12-07T00:36:24;99940.63;;;6.19;nan
6349;BME280;3207;42.648;23.406;2022-12-07T00:38:51;99940.53;;;6.20;nan
6349;BME280;3207;42.648;23.406;2022-12-07T00:41:19;99942.28;;;6.20;nan
6349;BME280;3207;42.648;23.406;2022-12-07T00:43:47;99940.69;;;6.17;nan
6349;BME280;3207;42.648;23.406;2022-12-07T00:46:14;99934.09;;;6.12;nan
6349;BME280;3207;42.648;23.406;2022-12-07T00:48:41;99935.28;;;6.06;nan
6349;BME280;3207;42.648;23.406;2022-12-07T00:51:09;99921.13;;;5.96;nan
6349;BME280;3207;42.648;23.406;2022-12-07T00:53:39;99920.28;;;5.96;nan
6349;BME280;3207;42.648;23.406;2022-12-07T00:56:06;99924.72;;;5.94;nan
6349;BME280;3207;42.648;23.406;2022-12-07T00:58:33;99898.03;;;5.76;nan
6349;BME280;3207;42.648;23.406;2022-12-07T01:01:01;99925.03;;;5.87;nan
6349;BME280;3207;42.648;23.406;2022-12-07T01:03:28;99907.81;;;5.86;nan
6349;BME280;3207;42.648;23.406;2022-12-07T01:05:56;99925.97;;;5.86;nan
6349;BME280;3207;42.648;23.406;2022-12-07T01:08:24;99915.25;;;5.77;nan
6349;BME280;3207;42.648;23.406;2022-12-07T01:10:59;99921.69;;;5.85;nan
6349;BME280;3207;42.648;23.406;2022-12-07T01:13:27;99928.56;;;5.86;nan
6349;BME280;3207;42.648;23.406;2022-12-07T01:15:57;99923.31;;;5.88;nan
6349;BME280;3207;42.648;23.406;2022-12-07T01:18:25;99924.91;;;5.91;nan
6349;BME280;3207;42.648;23.406;2022-12-07T01:21:02;99920.38;;;5.94;nan
6349;BME280;3207;42.648;23.406;2022-12-07T01:23:29;99925.31;;;5.99;nan
6349;BME280;3207;42.648;23.406;2022-12-07T01:25:59;99918.94;;;6.04;nan
6349;BME280;3207;42.648;23.406;2022-12-07T01:28:27;99913.44;;;6.10;nan
6349;BME280;3207;42.648;23.406;2022-12-07T01:30:58;99915.03;;;6.13;nan
6349;BME280;3207;42.648;23.406;2022-12-07T01:33:27;99913.06;;;6.16;nan
6349;BME280;3207;42.648;23.406;2022-12-07T01:35:55;99899.47;;;6.13;nan
6349;BME280;3207;42.648;23.406;2022-12-07T01:38:26;99908.72;;;6.17;nan
6349;BME280;3207;42.648;23.406;2022-12-07T01:40:54;99906.13;;;6.17;nan
6349;BME280;3207;42.648;23.406;2022-12-07T01:43:24;99919.03;;;6.18;nan
6349;BME280;3207;42.648;23.406;2022-12-07T01:45:52;99911.91;;;6.22;nan
6349;BME280;3207;42.648;23.406;2022-12-07T01:48:22;99913.31;;;6.28;nan
6349;BME280;3207;42.648;23.406;2022-12-07T01:50:51;99891.91;;;6.24;nan
6349;BME280;3207;42.648;23.406;2022-12-07T01:53:20;99902.59;;;6.34;nan
6349;BME280;3207;42.648;23.406;2022-12-07T01:55:50;99909.34;;;6.36;nan
6349;BME280;3207;42.648;23.406;2022-12-07T01:58:18;99900.47;;;6.40;nan
6349;BME280;3207;42.648;23.406;2022-12-07T02:00:47;99886.00;;;6.36;nan
6349;BME280;3207;42.648;23.406;2022-12-07T02:03:18;99894.00;;;6.47;nan
6349;BME280;3207;42.648;23.406;2022-12-07T02:05:48;99893.28;;;6.45;nan
6349;BME280;3207;42.648;23.406;2022-12-07T02:08:16;99896.03;;;6.42;nan
6349;BME280;3207;42.648;23.406;2022-12-07T02:10:44;99894.44;;;6.40;nan
6349;BME280;3207;42.648;23.406;2022-12-07T02:13:13;99895.44;;;6.37;nan
6349;BME280;3207;42.648;23.406;2022-12-07T02:15:54;99835.34;;;5.99;nan
6349;BME280;3207;42.648;23.406;2022-12-07T02:18:31;99896.56;;;6.33;nan
6349;BME280;3207;42.648;23.406;2022-12-07T02:21:09;99894.06;;;6.32;nan
6349;BME280;3207;42.648;23.406;2022-12-07T02:23:45;99894.91;;;6.32;nan
6349;BME280;3207;42.648;23.406;2022-12-07T02:29:28;99898.03;;;6.37;nan
6349;BME280;3207;42.648;23.406;2022-12-07T02:32:02;99887.50;;;6.40;nan
6349;BME280;3207;42.648;23.406;2022-12-07T02:34:38;99856.28;;;6.26;nan
6349;BME280;3207;42.648;23.406;2022-12-07T02:37:10;99879.53;;;6.43;nan
6349;BME280;3207;42.648;23.406;2022-12-07T02:39:42;99871.56;;;6.46;nan
6349;BME280;3207;42.648;23.406;2022-12-07T02:42:14;99864.34;;;6.51;nan
6349;BME280;3207;42.648;23.406;2022-12-07T02:44:44;99827.03;;;6.38;nan
6349;BME280;3207;42.648;23.406;2022-12-07T02:47:14;99855.47;;;6.55;nan
6349;BME280;3207;42.648;23.406;2022-12-07T02:49:42;99850.06;;;6.58;nan
6349;BME280;3207;42.648;23.406;2022-12-07T02:52:09;99843.94;;;6.59;nan
6349;BME280;3207;42.648;23.406;2022-12-07T02:54:36;99845.72;;;6.59;nan
6349;BME280;3207;42.648;23.406;2022-12-07T02:57:12;99848.22;;;6.60;nan
6349;BME280;3207;42.648;23.406;2022-12-07T02:59:54;99848.22;;;6.60;nan
6349;BME280;3207;42.648;23.406;2022-12-07T03:02:31;99841.56;;;6.56;nan
6349;BME280;3207;42.648;23.406;2022-12-07T03:05:12;99839.22;;;6.52;nan
6349;BME280;3207;42.648;23.406;2022-12-07T03:07:48;99836.25;;;6.44;nan
6349;BME280;3207;42.648;23.406;2022-12-07T03:10:22;99830.47;;;6.39;nan
6349;BME280;3207;42.648;23.406;2022-12-07T03:13:01;99842.06;;;6.33;nan
6349;BME280;3207;42.648;23.406;2022-12-07T03:15:35;99830.25;;;6.28;nan
6349;BME280;3207;42.648;23.406;2022-12-07T03:18:07;99807.88;;;6.11;nan
6349;BME280;3207;42.648;23.406;2022-12-07T03:20:37;99826.59;;;6.16;nan
6349;BME280;3207;42.648;23.406;2022-12-07T03:23:07;99817.13;;;6.01;nan
6349;BME280;3207;42.648;23.406;2022-12-07T03:25:39;99823.63;;;6.08;nan
6349;BME280;3207;42.648;23.406;2022-12-07T03:28:08;99818.03;;;6.00;nan
6349;BME280;3207;42.648;23.406;2022-12-07T03:30:42;99827.50;;;6.01;nan
6349;BME280;3207;42.648;23.406;2022-12-07T03:33:15;99824.97;;;5.99;nan
6349;BME280;3207;42.648;23.406;2022-12-07T03:35:49;99829.25;;;6.00;nan
6349;BME280;3207;42.648;23.406;2022-12-07T03:38:20;99828.34;;;6.01;nan
6349;BME280;3207;42.648;23.406;2022-12-07T03:40:52;99830.72;;;6.04;nan
6349;BME280;3207;42.648;23.406;2022-12-07T03:43:21;99823.53;;;6.09;nan
6349;BME280;3207;42.648;23.406;2022-12-07T03:45:59;99824.94;;;6.15;nan
6349;BME280;3207;42.648;23.406;2022-12-07T03:48:33;99826.34;;;6.20;nan
6349;BME280;3207;42.648;23.406;2022-12-07T03:51:10;99820.25;;;6.21;nan
6349;BME280;3207;42.648;23.406;2022-12-07T03:53:41;99824.59;;;6.21;nan
6349;BME280;3207;42.648;23.406;2022-12-07T03:56:11;99815.97;;;6.20;nan
6349;BME280;3207;42.648;23.406;2022-12-07T03:58:39;99818.56;;;6.20;nan
6349;BME280;3207;42.648;23.406;2022-12-07T04:01:08;99817.72;;;6.20;nan
6349;BME280;3207;42.648;23.406;2022-12-07T04:03:35;99814.47;;;6.16;nan
6349;BME280;3207;42.648;23.406;2022-12-07T04:06:02;99813.06;;;6.11;nan
6349;BME280;3207;42.648;23.406;2022-12-07T04:08:29;99814.25;;;6.05;nan
6349;BME280;3207;42.648;23.406;2022-12-07T04:10:56;99817.13;;;6.01;nan
6349;BME280;3207;42.648;23.406;2022-12-07T04:13:22;99810.41;;;5.97;nan
6349;BME280;3207;42.648;23.406;2022-12-07T04:15:49;99812.47;;;5.92;nan
6349;BME280;3207;42.648;23.406;2022-12-07T04:18:17;99810.91;;;5.87;nan
6349;BME280;3207;42.648;23.406;2022-12-07T04:20:45;99816.19;;;5.86;nan
6349;BME280;3207;42.648;23.406;2022-12-07T04:23:12;99816.09;;;5.87;nan
6349;BME280;3207;42.648;23.406;2022-12-07T04:25:39;99817.66;;;5.92;nan
6349;BME280;3207;42.648;23.406;2022-12-07T04:28:05;99813.00;;;5.97;nan
6349;BME280;3207;42.648;23.406;2022-12-07T04:30:32;99811.09;;;6.00;nan
6349;BME280;3207;42.648;23.406;2022-12-07T04:32:59;99812.50;;;6.06;nan
6349;BME280;3207;42.648;23.406;2022-12-07T04:35:27;99811.41;;;6.10;nan
6349;BME280;3207;42.648;23.406;2022-12-07T04:37:54;99805.28;;;6.11;nan
6349;BME280;3207;42.648;23.406;2022-12-07T04:40:20;99805.28;;;6.11;nan
6349;BME280;3207;42.648;23.406;2022-12-07T04:42:47;99807.72;;;6.14;nan
6349;BME280;3207;42.648;23.406;2022-12-07T04:45:14;99805.00;;;6.15;nan
6349;BME280;3207;42.648;23.406;2022-12-07T04:47:41;99798.25;;;6.13;nan
6349;BME280;3207;42.648;23.406;2022-12-07T04:50:09;99800.31;;;6.22;nan
6349;BME280;3207;42.648;23.406;2022-12-07T04:52:38;99795.75;;;6.25;nan
6349;BME280;3207;42.648;23.406;2022-12-07T04:55:05;99793.91;;;6.28;nan
6349;BME280;3207;42.648;23.406;2022-12-07T04:57:32;99784.53;;;6.25;nan
6349;BME280;3207;42.648;23.406;2022-12-07T04:59:59;99786.03;;;6.29;nan
6349;BME280;3207;42.648;23.406;2022-12-07T05:02:25;99799.03;;;6.29;nan
6349;BME280;3207;42.648;23.406;2022-12-07T05:04:52;99799.78;;;6.31;nan
6349;BME280;3207;42.648;23.406;2022-12-07T05:07:19;99797.00;;;6.34;nan
6349;BME280;3207;42.648;23.406;2022-12-07T05:09:47;99795.88;;;6.38;nan
6349;BME280;3207;42.648;23.406;2022-12-07T05:12:14;99798.22;;;6.43;nan
6349;BME280;3207;42.648;23.406;2022-12-07T05:14:40;99797.22;;;6.45;nan
6349;BME280;3207;42.648;23.406;2022-12-07T05:17:08;99790.97;;;6.48;nan
6349;BME280;3207;42.648;23.406;2022-12-07T05:19:34;99793.41;;;6.51;nan
6349;BME280;3207;42.648;23.406;2022-12-07T05:22:01;99805.56;;;6.50;nan
6349;BME280;3207;42.648;23.406;2022-12-07T05:24:28;99790.16;;;6.47;nan
6349;BME280;3207;42.648;23.406;2022-12-07T05:26:56;99807.06;;;6.54;nan
6349;BME280;3207;42.648;23.406;2022-12-07T05:29:23;99812.03;;;6.57;nan
6349;BME280;3207;42.648;23.406;2022-12-07T05:31:49;99799.81;;;6.59;nan
6349;BME280;3207;42.648;23.406;2022-12-07T05:34:16;99807.41;;;6.63;nan
6349;BME280;3207;42.648;23.406;2022-12-07T05:36:43;99796.84;;;6.66;nan
6349;BME280;3207;42.648;23.406;2022-12-07T05:39:10;99796.66;;;6.69;nan
6349;BME280;3207;42.648;23.406;2022-12-07T05:41:36;99796.47;;;6.72;nan
6349;BME280;3207;42.648;23.406;2022-12-07T05:44:22;99798.16;;;6.73;nan
6349;BME280;3207;42.648;23.406;2022-12-07T05:46:49;99798.91;;;6.75;nan
6349;BME280;3207;42.648;23.406;2022-12-07T05:49:16;99797.06;;;6.77;nan
6349;BME280;3207;42.648;23.406;2022-12-07T05:51:43;99794.25;;;6.80;nan
6349;BME280;3207;42.648;23.406;2022-12-07T05:54:10;99797.59;;;6.82;nan
6349;BME280;3207;42.648;23.406;2022-12-07T05:56:36;99783.84;;;6.80;nan
6349;BME280;3207;42.648;23.406;2022-12-07T05:59:03;99794.81;;;6.85;nan
6349;BME280;3207;42.648;23.406;2022-12-07T06:01:49;99793.81;;;6.87;nan
6349;BME280;3207;42.648;23.406;2022-12-07T06:04:16;99795.34;;;6.90;nan
6349;BME280;3207;42.648;23.406;2022-12-07T06:06:44;99792.75;;;6.90;nan
6349;BME280;3207;42.648;23.406;2022-12-07T06:09:11;99792.97;;;6.87;nan
6349;BME280;3207;42.648;23.406;2022-12-07T06:11:38;99789.63;;;6.85;nan
6349;BME280;3207;42.648;23.406;2022-12-07T06:14:23;99808.16;;;6.93;nan
6349;BME280;3207;42.648;23.406;2022-12-07T06:16:51;99815.97;;;6.93;nan
6349;BME280;3207;42.648;23.406;2022-12-07T06:19:18;99809.84;;;6.94;nan
6349;BME280;3207;42.648;23.406;2022-12-07T06:21:44;99814.13;;;6.95;nan
6349;BME280;3207;42.648;23.406;2022-12-07T06:24:12;99814.19;;;6.93;nan
6349;BME280;3207;42.648;23.406;2022-12-07T06:26:39;99810.78;;;6.93;nan
6349;BME280;3207;42.648;23.406;2022-12-07T06:29:06;99806.13;;;6.84;nan
6349;BME280;3207;42.648;23.406;2022-12-07T06:31:34;99820.41;;;6.91;nan
6349;BME280;3207;42.648;23.406;2022-12-07T06:34:04;99823.94;;;6.90;nan
6349;BME280;3207;42.648;23.406;2022-12-07T06:36:31;99816.53;;;6.84;nan
6349;BME280;3207;42.648;23.406;2022-12-07T06:38:58;99829.50;;;6.84;nan
6349;BME280;3207;42.648;23.406;2022-12-07T06:41:24;99821.72;;;6.84;nan
6349;BME280;3207;42.648;23.406;2022-12-07T06:43:51;99824.31;;;6.84;nan
6349;BME280;3207;42.648;23.406;2022-12-07T06:46:18;99837.31;;;6.84;nan
6349;BME280;3207;42.648;23.406;2022-12-07T06:48:45;99791.47;;;6.54;nan
6349;BME280;3207;42.648;23.406;2022-12-07T06:51:13;99837.22;;;6.85;nan
6349;BME280;3207;42.648;23.406;2022-12-07T06:53:40;99811.13;;;6.73;nan
6349;BME280;3207;42.648;23.406;2022-12-07T06:56:07;99839.72;;;6.87;nan
6349;BME280;3207;42.648;23.406;2022-12-07T06:58:34;99837.97;;;6.87;nan
6349;BME280;3207;42.648;23.406;2022-12-07T07:01:00;99843.03;;;6.89;nan
6349;BME280;3207;42.648;23.406;2022-12-07T07:03:28;99841.19;;;6.91;nan
6349;BME280;3207;42.648;23.406;2022-12-07T07:05:55;99835.81;;;6.94;nan
6349;BME280;3207;42.648;23.406;2022-12-07T07:08:23;99839.16;;;6.96;nan
6349;BME280;3207;42.648;23.406;2022-12-07T07:10:50;99834.72;;;6.98;nan
6349;BME280;3207;42.648;23.406;2022-12-07T07:13:16;99824.97;;;6.87;nan
6349;BME280;3207;42.648;23.406;2022-12-07T07:15:43;99843.97;;;7.02;nan
6349;BME280;3207;42.648;23.406;2022-12-07T07:18:10;99850.09;;;7.01;nan
6349;BME280;3207;42.648;23.406;2022-12-07T07:20:37;99845.00;;;6.99;nan
6349;BME280;3207;42.648;23.406;2022-12-07T07:23:04;99847.34;;;7.04;nan
6349;BME280;3207;42.648;23.406;2022-12-07T07:25:32;99843.81;;;7.05;nan
6349;BME280;3207;42.648;23.406;2022-12-07T07:28:04;99840.28;;;7.06;nan
6349;BME280;3207;42.648;23.406;2022-12-07T07:30:31;99819.41;;;6.93;nan
6349;BME280;3207;42.648;23.406;2022-12-07T07:32:58;99840.09;;;7.09;nan
6349;BME280;3207;42.648;23.406;2022-12-07T07:35:25;99853.47;;;7.17;nan
6349;BME280;3207;42.648;23.406;2022-12-07T07:37:52;99848.09;;;7.20;nan
6349;BME280;3207;42.648;23.406;2022-12-07T07:40:20;99852.16;;;7.24;nan
6349;BME280;3207;42.648;23.406;2022-12-07T07:42:48;99849.38;;;7.27;nan
6349;BME280;3207;42.648;23.406;2022-12-07T07:45:16;99848.22;;;7.31;nan
6349;BME280;3207;42.648;23.406;2022-12-07T07:47:43;99857.53;;;7.35;nan
6349;BME280;3207;42.648;23.406;2022-12-07T07:50:10;99852.97;;;7.39;nan
6349;BME280;3207;42.648;23.406;2022-12-07T07:52:36;99847.78;;;7.39;nan
6349;BME280;3207;42.648;23.406;2022-12-07T07:55:04;99845.72;;;7.44;nan
6349;BME280;3207;42.648;23.406;2022-12-07T07:57:32;99857.50;;;7.50;nan
6349;BME280;3207;42.648;23.406;2022-12-07T08:00:01;99855.75;;;7.50;nan
6349;BME280;3207;42.648;23.406;2022-12-07T08:02:28;99866.16;;;7.50;nan
6349;BME280;3207;42.648;23.406;2022-12-07T08:04:55;99862.50;;;7.53;nan
6349;BME280;3207;42.648;23.406;2022-12-07T08:07:22;99864.16;;;7.54;nan
6349;BME280;3207;42.648;23.406;2022-12-07T08:09:49;99869.47;;;7.52;nan
6349;BME280;3207;42.648;23.406;2022-12-07T08:12:15;99875.50;;;7.53;nan
6349;BME280;3207;42.648;23.406;2022-12-07T08:14:42;99869.47;;;7.52;nan
6349;BME280;3207;42.648;23.406;2022-12-07T08:17:10;99862.50;;;7.53;nan
6349;BME280;3207;42.648;23.406;2022-12-07T08:19:37;99865.00;;;7.54;nan
6349;BME280;3207;42.648;23.406;2022-12-07T08:22:04;99868.44;;;7.55;nan
6349;BME280;3207;42.648;23.406;2022-12-07T08:24:33;99863.06;;;7.58;nan
6349;BME280;3207;42.648;23.406;2022-12-07T08:27:00;99857.84;;;7.58;nan
6349;BME280;3207;42.648;23.406;2022-12-07T08:29:26;99866.59;;;7.57;nan
6349;BME280;3207;42.648;23.406;2022-12-07T08:31:54;99868.25;;;7.58;nan
6349;BME280;3207;42.648;23.406;2022-12-07T08:34:22;99858.88;;;7.55;nan
6349;BME280;3207;42.648;23.406;2022-12-07T08:36:49;99866.59;;;7.57;nan
6349;BME280;3207;42.648;23.406;2022-12-07T08:39:16;99869.00;;;7.60;nan
6349;BME280;3207;42.648;23.406;2022-12-07T08:41:43;99864.56;;;7.62;nan
6349;BME280;3207;42.648;23.406;2022-12-07T08:44:09;99861.81;;;7.63;nan
6349;BME280;3207;42.648;23.406;2022-12-07T08:46:38;99869.34;;;7.68;nan
6349;BME280;3207;42.648;23.406;2022-12-07T08:49:08;99862.47;;;7.67;nan
6349;BME280;3207;42.648;23.406;2022-12-07T08:51:39;99870.63;;;7.75;nan
6349;BME280;3207;42.648;23.406;2022-12-07T08:54:07;99877.31;;;7.79;nan
6349;BME280;3207;42.648;23.406;2022-12-07T08:56:35;99884.19;;;7.80;nan
6349;BME280;3207;42.648;23.406;2022-12-07T08:59:03;99886.59;;;7.83;nan
6349;BME280;3207;42.648;23.406;2022-12-07T09:01:30;99884.72;;;7.85;nan
6349;BME280;3207;42.648;23.406;2022-12-07T09:03:58;99890.66;;;7.87;nan
6349;BME280;3207;42.648;23.406;2022-12-07T09:06:25;99876.28;;;7.82;nan
6349;BME280;3207;42.648;23.406;2022-12-07T09:08:55;99881.59;;;7.80;nan
6349;BME280;3207;42.648;23.406;2022-12-07T09:11:24;99889.22;;;7.83;nan
6349;BME280;3207;42.648;23.406;2022-12-07T09:13:50;99903.16;;;7.82;nan
6349;BME280;3207;42.648;23.406;2022-12-07T09:16:17;99891.81;;;7.83;nan
6349;BME280;3207;42.648;23.406;2022-12-07T09:18:44;99889.91;;;7.85;nan
6349;BME280;3207;42.648;23.406;2022-12-07T09:21:11;99893.28;;;7.87;nan
6349;BME280;3207;42.648;23.406;2022-12-07T09:23:38;99906.09;;;7.90;nan
6349;BME280;3207;42.648;23.406;2022-12-07T09:26:06;99896.44;;;7.92;nan
6349;BME280;3207;42.648;23.406;2022-12-07T09:28:33;99897.06;;;7.96;nan
6349;BME280;3207;42.648;23.406;2022-12-07T09:31:00;99903.09;;;7.96;nan
6349;BME280;3207;42.648;23.406;2022-12-07T09:33:26;99898.81;;;7.95;nan
6349;BME280;3207;42.648;23.406;2022-12-07T09:35:54;99896.13;;;7.97;nan
6349;BME280;3207;42.648;23.406;2022-12-07T09:38:21;99894.34;;;7.97;nan
6349;BME280;3207;42.648;23.406;2022-12-07T09:40:49;99887.38;;;7.98;nan
6349;BME280;3207;42.648;23.406;2022-12-07T09:43:20;99888.22;;;7.98;nan
6349;BME280;3207;42.648;23.406;2022-12-07T09:45:50;99877.81;;;7.98;nan
6349;BME280;3207;42.648;23.406;2022-12-07T09:48:20;99882.19;;;7.98;nan
6349;BME280;3207;42.648;23.406;2022-12-07T09:50:49;99879.56;;;7.98;nan
6349;BME280;3207;42.648;23.406;2022-12-07T09:53:23;99817.91;;;7.59;nan
6349;BME280;3207;42.648;23.406;2022-12-07T09:55:51;99890.63;;;8.01;nan
6349;BME280;3207;42.648;23.406;2022-12-07T09:58:23;99882.00;;;8.01;nan
6349;BME280;3207;42.648;23.406;2022-12-07T10:00:53;99887.19;;;8.01;nan
6349;BME280;3207;42.648;23.406;2022-12-07T10:03:22;99883.94;;;7.97;nan
6349;BME280;3207;42.648;23.406;2022-12-07T10:05:50;99877.56;;;7.89;nan
6349;BME280;3207;42.648;23.406;2022-12-07T10:08:18;99878.69;;;7.85;nan
6349;BME280;3207;42.648;23.406;2022-12-07T10:10:46;99887.38;;;7.71;nan
6349;BME280;3207;42.648;23.406;2022-12-07T10:13:19;99880.78;;;7.65;nan
6349;BME280;3207;42.648;23.406;2022-12-07T10:15:51;99883.88;;;7.58;nan
6349;BME280;3207;42.648;23.406;2022-12-07T10:18:25;99886.88;;;7.52;nan
6349;BME280;3207;42.648;23.406;2022-12-07T10:21:10;99881.28;;;7.44;nan
6349;BME280;3207;42.648;23.406;2022-12-07T10:23:39;99876.72;;;7.33;nan
6349;BME280;3207;42.648;23.406;2022-12-07T10:26:21;99875.81;;;7.34;nan
6349;BME280;3207;42.648;23.406;2022-12-07T10:28:51;99866.81;;;7.25;nan
6349;BME280;3207;42.648;23.406;2022-12-07T10:31:21;99870.69;;;7.32;nan
6349;BME280;3207;42.648;23.406;2022-12-07T10:33:50;99860.22;;;7.34;nan
6349;BME280;3207;42.648;23.406;2022-12-07T10:36:21;99860.22;;;7.34;nan
6349;BME280;3207;42.648;23.406;2022-12-07T10:38:50;99851.94;;;7.42;nan
6349;BME280;3207;42.648;23.406;2022-12-07T10:41:16;99855.19;;;7.45;nan
6349;BME280;3207;42.648;23.406;2022-12-07T10:43:51;99859.81;;;7.54;nan
6349;BME280;3207;42.648;23.406;2022-12-07T10:46:46;99852.25;;;7.64;nan
6349;BME280;3207;42.648;23.406;2022-12-07T10:49:44;99856.06;;;7.72;nan
6349;BME280;3207;42.648;23.406;2022-12-07T10:52:28;99855.56;;;7.80;nan
6349;BME280;3207;42.648;23.406;2022-12-07T10:55:07;99850.56;;;7.77;nan
6349;BME280;3207;42.648;23.406;2022-12-07T10:57:44;99857.34;;;7.80;nan
6349;BME280;3207;42.648;23.406;2022-12-07T11:00:17;99850.19;;;7.83;nan
6349;BME280;3207;42.648;23.406;2022-12-07T11:05:50;99842.63;;;7.93;nan
6349;BME280;3207;42.648;23.406;2022-12-07T11:08:24;99839.78;;;7.96;nan
6349;BME280;3207;42.648;23.406;2022-12-07T11:11:04;99850.09;;;7.97;nan
6349;BME280;3207;42.648;23.406;2022-12-07T11:13:41;99840.53;;;7.98;nan
6349;BME280;3207;42.648;23.406;2022-12-07T11:16:21;99834.22;;;8.02;nan
6349;BME280;3207;42.648;23.406;2022-12-07T11:18:59;99839.94;;;8.07;nan
6349;BME280;3207;42.648;23.406;2022-12-07T11:21:39;99837.03;;;8.12;nan
6349;BME280;3207;42.648;23.406;2022-12-07T11:24:11;99825.50;;;8.16;nan
6349;BME280;3207;42.648;23.406;2022-12-07T11:26:58;99830.31;;;8.22;nan
6349;BME280;3207;42.648;23.406;2022-12-07T11:29:46;99832.72;;;8.25;nan
6349;BME280;3207;42.648;23.406;2022-12-07T11:32:22;99842.06;;;8.27;nan
6349;BME280;3207;42.648;23.406;2022-12-07T11:35:02;99827.69;;;8.22;nan
6349;BME280;3207;42.648;23.406;2022-12-07T11:37:34;99833.53;;;8.25;nan
6349;BME280;3207;42.648;23.406;2022-12-07T11:40:04;99821.00;;;8.18;nan
6349;BME280;3207;42.648;23.406;2022-12-07T11:42:38;99823.50;;;8.19;nan
6349;BME280;3207;42.648;23.406;2022-12-07T11:45:14;99819.06;;;8.21;nan
6349;BME280;3207;42.648;23.406;2022-12-07T11:47:46;99818.84;;;8.24;nan
6349;BME280;3207;42.648;23.406;2022-12-07T11:50:27;99816.84;;;8.28;nan
6349;BME280;3207;42.648;23.406;2022-12-07T11:53:01;99819.47;;;8.28;nan
6349;BME280;3207;42.648;23.406;2022-12-07T11:55:40;99817.59;;;8.30;nan
6349;BME280;3207;42.648;23.406;2022-12-07T11:58:18;99821.88;;;8.31;nan
6349;BME280;3207;42.648;23.406;2022-12-07T12:00:49;99808.69;;;8.34;nan
6349;BME280;3207;42.648;23.406;2022-12-07T12:03:25;99815.47;;;8.36;nan
6349;BME280;3207;42.648;23.406;2022-12-07T12:05:57;99808.47;;;8.37;nan
6349;BME280;3207;42.648;23.406;2022-12-07T12:08:28;99816.28;;;8.37;nan
6349;BME280;3207;42.648;23.406;2022-12-07T12:11:01;99815.34;;;8.38;nan
6349;BME280;3207;42.648;23.406;2022-12-07T12:14:04;99820.56;;;8.38;nan
6349;BME280;3207;42.648;23.406;2022-12-07T12:19:59;99805.16;;;8.35;nan
6349;BME280;3207;42.648;23.406;2022-12-07T12:22:32;99811.41;;;8.32;nan
6349;BME280;3207;42.648;23.406;2022-12-07T12:25:04;99809.88;;;8.28;nan
6349;BME280;3207;42.648;23.406;2022-12-07T12:27:33;99804.59;;;8.30;nan
6349;BME280;3207;42.648;23.406;2022-12-07T12:30:04;99807.97;;;8.32;nan
6349;BME280;3207;42.648;23.406;2022-12-07T12:32:37;99808.59;;;8.35;nan
6349;BME280;3207;42.648;23.406;2022-12-07T12:35:29;99793.44;;;8.28;nan
6349;BME280;3207;42.648;23.406;2022-12-07T12:38:25;99805.88;;;8.37;nan
6349;BME280;3207;42.648;23.406;2022-12-07T12:40:53;99790.47;;;8.34;nan
6349;BME280;3207;42.648;23.406;2022-12-07T12:43:50;99795.44;;;8.37;nan
6349;BME280;3207;42.648;23.406;2022-12-07T12:46:48;99795.44;;;8.37;nan
6349;BME280;3207;42.648;23.406;2022-12-07T12:49:40;99797.25;;;8.36;nan
6349;BME280;3207;42.648;23.406;2022-12-07T12:55:20;99800.88;;;8.34;nan
6349;BME280;3207;42.648;23.406;2022-12-07T12:58:22;99800.88;;;8.34;nan
6349;BME280;3207;42.648;23.406;2022-12-07T13:03:55;99792.84;;;8.37;nan
6349;BME280;3207;42.648;23.406;2022-12-07T13:06:34;99802.31;;;8.38;nan
6349;BME280;3207;42.648;23.406;2022-12-07T13:09:03;99800.47;;;8.40;nan
6349;BME280;3207;42.648;23.406;2022-12-07T13:11:34;99797.13;;;8.38;nan
6349;BME280;3207;42.648;23.406;2022-12-07T13:14:41;99796.91;;;8.41;nan
6349;BME280;3207;42.648;23.406;2022-12-07T13:17:09;99796.09;;;8.40;nan
6349;BME280;3207;42.648;23.406;2022-12-07T13:19:58;99804.84;;;8.39;nan
6349;BME280;3207;42.648;23.406;2022-12-07T13:22:48;99798.88;;;8.37;nan
6349;BME280;3207;42.648;23.406;2022-12-07T13:25:22;99796.50;;;8.34;nan
6349;BME280;3207;42.648;23.406;2022-12-07T13:27:58;99794.00;;;8.33;nan
6349;BME280;3207;42.648;23.406;2022-12-07T13:30:28;99788.88;;;8.31;nan
6349;BME280;3207;42.648;23.406;2022-12-07T13:32:58;99788.78;;;8.33;nan
6349;BME280;3207;42.648;23.406;2022-12-07T13:35:34;99781.91;;;8.32;nan
6349;BME280;3207;42.648;23.406;2022-12-07T13:38:05;99781.91;;;8.32;nan
6349;BME280;3207;42.648;23.406;2022-12-07T13:40:32;99782.81;;;8.31;nan
6349;BME280;3207;42.648;23.406;2022-12-07T13:43:03;99783.00;;;8.28;nan
6349;BME280;3207;42.648;23.406;2022-12-07T13:45:32;99787.38;;;8.27;nan
6349;BME280;3207;42.648;23.406;2022-12-07T13:48:18;99792.91;;;8.23;nan
6349;BME280;3207;42.648;23.406;2022-12-07T13:50:53;99802.31;;;8.25;nan
6349;BME280;3207;42.648;23.406;2022-12-07T13:53:20;99792.06;;;8.22;nan
6349;BME280;3207;42.648;23.406;2022-12-07T13:55:47;99801.38;;;8.26;nan
6349;BME280;3207;42.648;23.406;2022-12-07T13:58:16;99803.84;;;8.28;nan
6349;BME280;3207;42.648;23.406;2022-12-07T14:00:43;99799.38;;;8.30;nan
6349;BME280;3207;42.648;23.406;2022-12-07T14:03:31;99801.03;;;8.31;nan
6349;BME280;3207;42.648;23.406;2022-12-07T14:06:19;99799.22;;;8.33;nan
6349;BME280;3207;42.648;23.406;2022-12-07T14:08:47;99799.13;;;8.34;nan
6349;BME280;3207;42.648;23.406;2022-12-07T14:11:17;99801.50;;;8.37;nan
6349;BME280;3207;42.648;23.406;2022-12-07T14:13:52;99801.38;;;8.39;nan
6349;BME280;3207;42.648;23.406;2022-12-07T14:16:25;99802.13;;;8.41;nan
6349;BME280;3207;42.648;23.406;2022-12-07T14:18:53;99800.47;;;8.40;nan
6349;BME280;3207;42.648;23.406;2022-12-07T14:21:21;99799.31;;;8.44;nan